DAL380 KMIA-KATL
Flight info
| Callsign | DAL380 |
|---|---|
| Flight time | N/A |
| Altitude | 40000 |
| Route | FLMGO2 STYMY Q77 MJAMS/N0480F410 Q77 SHRKS/N0483F400 LAIRI LARZZ JJEDI4 |
| Aircraft | A359/H-SDE2E3GHIJ3J4J5LM1ORWXY/LB1D1 |
Departure
| Time | 2026-05-07 03:19 |
|---|---|
| Airport | Miami International Airport (KMIA) |
Arrival
| Time | N/A |
|---|---|
| Airport | Hartsfield Jackson Atlanta International Airport (KATL) |
| Time | Latitude | Longitude | Altitude | Speed | Heading |
|---|---|---|---|---|---|
| 2026-05-07 02:48 | 25.79029 | -80.27296 | 22 ft | 0 kts | 318° |
| 2026-05-07 02:48 | 25.79026 | -80.27293 | 23 ft | 0 kts | 314° |
| 2026-05-07 02:53 | 25.79029 | -80.27296 | 22 ft | 7 kts | 318° |
| 2026-05-07 02:55 | 25.79026 | -80.27293 | 21 ft | 0 kts | 314° |
| 2026-05-07 02:58 | 25.79029 | -80.27296 | 21 ft | 7 kts | 318° |
| 2026-05-07 02:59 | 25.79026 | -80.27293 | 21 ft | 0 kts | 314° |
| 2026-05-07 03:10 | 25.79019 | -80.27285 | 24 ft | 4 kts | 314° |
| 2026-05-07 03:10 | 25.79003 | -80.27268 | 25 ft | 3 kts | 314° |
| 2026-05-07 03:10 | 25.78989 | -80.27246 | 25 ft | 4 kts | 274° |
| 2026-05-07 03:11 | 25.78995 | -80.27225 | 27 ft | 1 kts | 225° |
| 2026-05-07 03:11 | 25.78980 | -80.27241 | 25 ft | 4 kts | 225° |
| 2026-05-07 03:11 | 25.78961 | -80.27263 | 24 ft | 4 kts | 225° |
| 2026-05-07 03:11 | 25.78945 | -80.27281 | 22 ft | 3 kts | 225° |
| 2026-05-07 03:12 | 25.78929 | -80.27304 | 25 ft | 4 kts | 243° |
| 2026-05-07 03:12 | 25.78926 | -80.27328 | 25 ft | 2 kts | 267° |
| 2026-05-07 03:12 | 25.78925 | -80.27357 | 25 ft | 4 kts | 267° |
| 2026-05-07 03:12 | 25.78923 | -80.27387 | 25 ft | 4 kts | 267° |
| 2026-05-07 03:13 | 25.78922 | -80.27414 | 24 ft | 1 kts | 267° |
| 2026-05-07 03:13 | 25.78924 | -80.27427 | 25 ft | 4 kts | 269° |
| 2026-05-07 03:13 | 25.78923 | -80.27432 | 25 ft | 0 kts | 258° |
| 2026-05-07 03:15 | 25.78915 | -80.27472 | 24 ft | 11 kts | 258° |
| 2026-05-07 03:15 | 25.78892 | -80.27594 | 22 ft | 21 kts | 258° |
| 2026-05-07 03:16 | 25.78876 | -80.27792 | 21 ft | 30 kts | 267° |
| 2026-05-07 03:16 | 25.78912 | -80.28029 | 27 ft | 33 kts | 298° |
| 2026-05-07 03:16 | 25.79022 | -80.28244 | 25 ft | 34 kts | 299° |
| 2026-05-07 03:16 | 25.79151 | -80.28477 | 24 ft | 36 kts | 303° |
| 2026-05-07 03:17 | 25.79281 | -80.28713 | 23 ft | 37 kts | 298° |
| 2026-05-07 03:17 | 25.79404 | -80.28972 | 23 ft | 40 kts | 304° |
| 2026-05-07 03:17 | 25.79554 | -80.29255 | 23 ft | 45 kts | 298° |
| 2026-05-07 03:17 | 25.79718 | -80.29575 | 24 ft | 50 kts | 298° |
| 2026-05-07 03:18 | 25.79888 | -80.29911 | 23 ft | 50 kts | 298° |
| 2026-05-07 03:18 | 25.80005 | -80.30103 | 24 ft | 6 kts | 349° |
| 2026-05-07 03:18 | 25.80033 | -80.30091 | 22 ft | 5 kts | 29° |
| 2026-05-07 03:18 | 25.80074 | -80.30017 | 22 ft | 23 kts | 78° |
| 2026-05-07 03:19 | 25.80091 | -80.29616 | 20 ft | 86 kts | 87° |
| 2026-05-07 03:19 | 25.80129 | -80.28704 | 27 ft | 149 kts | 88° |
| 2026-05-07 03:19 | 25.80204 | -80.27439 | 484 ft | 165 kts | 85° |
| 2026-05-07 03:19 | 25.80299 | -80.26195 | 1400 ft | 163 kts | 88° |
| 2026-05-07 03:20 | 25.80369 | -80.24830 | 1826 ft | 190 kts | 90° |
| 2026-05-07 03:20 | 25.80429 | -80.23248 | 2065 ft | 222 kts | 90° |
| 2026-05-07 03:20 | 25.80488 | -80.21432 | 2449 ft | 245 kts | 89° |
| 2026-05-07 03:20 | 25.80553 | -80.19496 | 3114 ft | 257 kts | 88° |
| 2026-05-07 03:21 | 25.80919 | -80.17523 | 3780 ft | 267 kts | 63° |
| 2026-05-07 03:21 | 25.82178 | -80.16038 | 4552 ft | 268 kts | 27° |
| 2026-05-07 03:21 | 25.83944 | -80.15559 | 5437 ft | 265 kts | 360° |
| 2026-05-07 03:21 | 25.85786 | -80.15597 | 6366 ft | 265 kts | 358° |
| 2026-05-07 03:22 | 25.87643 | -80.15643 | 7200 ft | 269 kts | 360° |
| 2026-05-07 03:22 | 25.89530 | -80.15793 | 7976 ft | 275 kts | 349° |
| 2026-05-07 03:22 | 25.91383 | -80.16354 | 8862 ft | 277 kts | 343° |
| 2026-05-07 03:22 | 25.93235 | -80.17025 | 9689 ft | 282 kts | 343° |
| 2026-05-07 03:23 | 25.95120 | -80.17705 | 10372 ft | 291 kts | 344° |
| 2026-05-07 03:23 | 25.97116 | -80.18415 | 10709 ft | 311 kts | 344° |
| 2026-05-07 03:23 | 25.99155 | -80.19427 | 11015 ft | 333 kts | 328° |
| 2026-05-07 03:23 | 26.01017 | -80.21085 | 11355 ft | 351 kts | 320° |
| 2026-05-07 03:24 | 26.02853 | -80.22935 | 11854 ft | 360 kts | 320° |
| 2026-05-07 03:24 | 26.04717 | -80.24818 | 12462 ft | 365 kts | 320° |
| 2026-05-07 03:24 | 26.06612 | -80.26718 | 13084 ft | 368 kts | 320° |
| 2026-05-07 03:24 | 26.08529 | -80.28633 | 13764 ft | 371 kts | 321° |
| 2026-05-07 03:25 | 26.10461 | -80.30556 | 14219 ft | 377 kts | 320° |
| 2026-05-07 03:25 | 26.12421 | -80.32512 | 14766 ft | 375 kts | 319° |
| 2026-05-07 03:25 | 26.14320 | -80.34454 | 15119 ft | 369 kts | 321° |
| 2026-05-07 03:25 | 26.16252 | -80.36356 | 15149 ft | 373 kts | 323° |
| 2026-05-07 03:26 | 26.18221 | -80.38261 | 15142 ft | 377 kts | 322° |
| 2026-05-07 03:26 | 26.20201 | -80.40197 | 15140 ft | 381 kts | 322° |
| 2026-05-07 03:26 | 26.22220 | -80.42123 | 15146 ft | 384 kts | 326° |
| 2026-05-07 03:26 | 26.24485 | -80.43630 | 15514 ft | 374 kts | 336° |
| 2026-05-07 03:27 | 26.26790 | -80.44875 | 16026 ft | 363 kts | 337° |
| 2026-05-07 03:27 | 26.29039 | -80.46069 | 16540 ft | 354 kts | 334° |
| 2026-05-07 03:27 | 26.31271 | -80.47300 | 16791 ft | 365 kts | 334° |
| 2026-05-07 03:27 | 26.33599 | -80.48554 | 17054 ft | 378 kts | 334° |
| 2026-05-07 03:28 | 26.35971 | -80.49826 | 17446 ft | 386 kts | 334° |
| 2026-05-07 03:28 | 26.38404 | -80.51127 | 17952 ft | 390 kts | 334° |
| 2026-05-07 03:28 | 26.40863 | -80.52438 | 18458 ft | 394 kts | 333° |
| 2026-05-07 03:28 | 26.43342 | -80.53760 | 18931 ft | 396 kts | 333° |